Time;durP1;ratioP1;P1;durP2;ratioP2;P2;SDS_P1;SDS_P2;PMS_P1;PMS_P2;Temp;Humidity;BMP_temperature;BMP_pressure;BME280_temperature;BME280_humidity;BME280_pressure;Samples;Min_cycle;Max_cycle;Signal;HPM_P1;HPM_P2
2023/12/03 00:01:07;;;;;;;12.35;4.57;;;;;;;-3.33;100.00;101103.38;5009327;28;20041;-80
2023/12/03 00:03:35;;;;;;;7.13;3.25;;;;;;;-3.42;100.00;101105.28;5012632;28;20665;-81
2023/12/03 00:06:04;;;;;;;7.05;3.67;;;;;;;-3.40;100.00;101102.44;5010307;28;20073;-81
2023/12/03 00:08:32;;;;;;;7.82;4.00;;;;;;;-3.28;100.00;101101.81;5020594;28;20870;-80
2023/12/03 00:11:00;;;;;;;5.72;3.85;;;;;;;-3.25;100.00;101105.97;5008886;28;20062;-81
2023/12/03 00:13:30;;;;;;;5.07;2.83;;;;;;;-3.35;100.00;101103.53;5013200;28;20054;-81
2023/12/03 00:16:04;;;;;;;5.40;3.40;;;;;;;-3.41;100.00;101106.94;5021029;28;20054;-80
2023/12/03 00:18:39;;;;;;;5.88;3.45;;;;;;;-3.39;100.00;101104.91;5007984;28;20058;-80
2023/12/03 00:21:12;;;;;;;8.10;4.65;;;;;;;-3.43;100.00;101116.91;5009003;28;20058;-81
2023/12/03 00:23:40;;;;;;;7.15;3.72;;;;;;;-3.41;100.00;101101.63;5008865;28;20050;-81
2023/12/03 00:26:13;;;;;;;5.10;2.78;;;;;;;-3.40;100.00;101110.41;5006526;28;20042;-81
2023/12/03 00:28:48;;;;;;;3.72;2.75;;;;;;;-3.33;100.00;101103.38;5023576;28;20060;-80
2023/12/03 00:31:16;;;;;;;5.97;3.53;;;;;;;-3.32;100.00;101107.69;5001026;28;20395;-81
2023/12/03 00:33:49;;;;;;;5.13;3.10;;;;;;;-3.36;100.00;101114.38;5004269;28;20047;-80
2023/12/03 00:36:17;;;;;;;5.60;3.65;;;;;;;-3.44;100.00;101112.59;5023114;28;20057;-81
2023/12/03 00:38:51;;;;;;;5.47;3.15;;;;;;;-3.49;100.00;101113.13;5009626;28;20054;-80
2023/12/03 00:41:20;;;;;;;4.00;2.80;;;;;;;-3.38;100.00;101119.03;5013302;28;20141;-80
2023/12/03 00:43:50;;;;;;;5.35;2.50;;;;;;;-3.35;100.00;101116.84;5028589;28;20078;-80
2023/12/03 00:46:23;;;;;;;4.60;2.70;;;;;;;-3.42;100.00;101106.09;5014566;28;20461;-81
2023/12/03 00:48:56;;;;;;;10.48;4.13;;;;;;;-3.43;100.00;101120.38;5006299;28;20050;-82
2023/12/03 00:51:29;;;;;;;4.75;3.03;;;;;;;-3.43;100.00;101114.25;5020874;28;20046;-82
2023/12/03 00:53:58;;;;;;;6.90;3.35;;;;;;;-3.48;100.00;101116.59;5009679;28;20056;-81
2023/12/03 00:56:31;;;;;;;7.72;3.25;;;;;;;-3.46;100.00;101125.25;5013518;28;20502;-81
2023/12/03 00:59:05;;;;;;;4.13;2.58;;;;;;;-3.42;100.00;101131.88;5006463;28;20049;-80
2023/12/03 01:01:38;;;;;;;6.20;3.25;;;;;;;-3.41;100.00;101133.53;5010143;28;20416;-81
2023/12/03 01:04:11;;;;;;;9.25;2.92;;;;;;;-3.44;100.00;101133.88;5010810;28;20053;-81
2023/12/03 01:06:45;;;;;;;4.45;2.95;;;;;;;-3.49;100.00;101138.91;5022900;28;20061;-81
2023/12/03 01:09:18;;;;;;;7.70;4.03;;;;;;;-3.61;100.00;101138.47;5004784;28;20428;-81
2023/12/03 01:11:46;;;;;;;8.57;2.67;;;;;;;-3.49;100.00;101136.25;5015474;28;20061;-81
2023/12/03 01:14:16;;;;;;;3.85;2.92;;;;;;;-3.47;100.00;101143.03;5009626;28;20414;-80
2023/12/03 01:16:49;;;;;;;6.60;3.45;;;;;;;-3.43;100.00;101143.53;5023013;28;20050;-80
2023/12/03 01:19:17;;;;;;;6.65;3.13;;;;;;;-3.44;100.00;101152.50;5017135;28;20063;-81
2023/12/03 01:21:45;;;;;;;8.23;3.38;;;;;;;-3.45;100.00;101151.69;5009981;28;20060;-80
2023/12/03 01:24:18;;;;;;;5.32;3.25;;;;;;;-3.45;100.00;101143.69;5007898;28;20058;-81
2023/12/03 01:26:46;;;;;;;3.42;2.45;;;;;;;-3.44;100.00;101157.81;5011373;28;20492;-80
2023/12/03 01:29:21;;;;;;;5.28;3.28;;;;;;;-3.50;100.00;101159.34;5006519;28;20042;-81
2023/12/03 01:31:54;;;;;;;6.68;3.92;;;;;;;-3.49;100.00;101166.34;5028836;28;20073;-81
2023/12/03 01:34:27;;;;;;;5.10;3.75;;;;;;;-3.51;100.00;101164.84;5011876;28;20046;-80
2023/12/03 01:36:55;;;;;;;8.43;3.83;;;;;;;-3.57;100.00;101169.03;5025780;28;20050;-80
2023/12/03 01:39:24;;;;;;;5.65;3.35;;;;;;;-3.64;100.00;101184.06;5023080;28;20054;-80
2023/12/03 01:41:57;;;;;;;5.97;3.00;;;;;;;-3.55;100.00;101179.50;5007565;28;20490;-80
2023/12/03 01:44:31;;;;;;;4.53;3.22;;;;;;;-3.45;100.00;101180.13;5010183;28;20054;-81
2023/12/03 01:47:00;;;;;;;7.15;4.20;;;;;;;-3.48;100.00;101185.78;5007650;28;20054;-80
2023/12/03 01:49:29;;;;;;;5.38;3.10;;;;;;;-3.44;100.00;101192.41;5006697;28;20549;-81
2023/12/03 01:52:03;;;;;;;7.13;3.30;;;;;;;-3.45;100.00;101185.47;5011941;28;20626;-81
2023/12/03 01:54:35;;;;;;;8.85;4.00;;;;;;;-3.43;100.00;101194.91;5004598;28;20698;-82
2023/12/03 01:57:09;;;;;;;;;;;;;;;-3.40;100.00;101190.25;5021402;28;20054;-81
2023/12/03 01:59:43;;;;;;;8.02;4.28;;;;;;;-3.31;100.00;101195.34;5011769;28;19922;-81
2023/12/03 02:02:17;;;;;;;3.13;2.22;;;;;;;-3.33;100.00;101202.69;5015214;28;20050;-81
2023/12/03 02:04:50;;;;;;;6.47;3.17;;;;;;;-3.31;100.00;101208.66;5011994;28;20053;-81
2023/12/03 02:07:18;;;;;;;7.90;3.90;;;;;;;-3.37;100.00;101209.38;5011767;28;20060;-81
2023/12/03 02:09:51;;;;;;;6.07;3.78;;;;;;;-3.30;100.00;101204.16;5010670;28;20049;-81
2023/12/03 02:12:25;;;;;;;4.72;2.70;;;;;;;-3.30;100.00;101198.81;5010773;28;20056;-81
2023/12/03 02:14:54;;;;;;;6.75;3.80;;;;;;;-3.30;100.00;101215.66;5004828;28;20418;-80
2023/12/03 02:17:22;;;;;;;5.38;3.20;;;;;;;-3.33;100.00;101207.16;5020218;28;20046;-81
2023/12/03 02:19:56;;;;;;;6.25;3.95;;;;;;;-3.31;100.00;101213.16;5011609;28;20061;-81
2023/12/03 02:22:29;;;;;;;3.35;2.30;;;;;;;-3.32;100.00;101206.16;5024585;28;20548;-81
2023/12/03 02:25:05;;;;;;;6.22;3.35;;;;;;;-3.31;100.00;101203.34;5002750;28;20076;-80
2023/12/03 02:27:38;;;;;;;6.10;3.35;;;;;;;-3.35;100.00;101199.34;5019292;28;20050;-81
2023/12/03 02:30:07;;;;;;;7.53;3.40;;;;;;;-3.34;100.00;101205.50;5008410;28;20049;-81
2023/12/03 02:32:35;;;;;;;6.18;3.17;;;;;;;-3.51;100.00;101216.22;5005628;28;20053;-81
2023/12/03 02:35:09;;;;;;;9.13;3.75;;;;;;;-3.51;100.00;101218.06;5016108;28;20072;-81
2023/12/03 02:37:37;;;;;;;5.32;2.92;;;;;;;-3.46;100.00;101221.06;5021201;28;20050;-82
2023/12/03 02:40:08;;;;;;;5.68;3.42;;;;;;;-3.44;100.00;101232.34;5011357;28;20057;-81
2023/12/03 02:42:42;;;;;;;6.15;3.60;;;;;;;-3.48;100.00;101226.56;5012730;28;20042;-81
2023/12/03 02:45:15;;;;;;;8.05;3.67;;;;;;;-3.45;100.00;101220.88;5010099;28;20523;-81
2023/12/03 02:47:48;;;;;;;5.90;3.75;;;;;;;-3.42;100.00;101220.53;5013042;28;20069;-80
2023/12/03 02:50:21;;;;;;;3.85;2.25;;;;;;;-3.51;100.00;101221.56;5010397;28;20064;-81
2023/12/03 02:52:49;;;;;;;4.47;3.22;;;;;;;-3.46;100.00;101223.72;5006045;28;20426;-81
2023/12/03 02:55:24;;;;;;;9.00;4.65;;;;;;;-3.55;100.00;101228.22;5010487;28;20065;-81
2023/12/03 02:57:57;;;;;;;6.65;3.67;;;;;;;-3.52;100.00;101219.91;5010593;28;20054;-81
2023/12/03 03:00:25;;;;;;;9.05;4.38;;;;;;;-3.54;100.00;101221.91;5010298;28;20760;-81
2023/12/03 03:02:55;;;;;;;4.05;2.58;;;;;;;-3.50;100.00;101219.72;5008018;28;20056;-80
2023/12/03 03:05:28;;;;;;;4.10;2.67;;;;;;;-3.44;100.00;101221.69;5009011;28;20061;-82
2023/12/03 03:07:56;;;;;;;7.38;2.88;;;;;;;-3.53;100.00;101220.91;5012177;28;20049;-80
2023/12/03 03:10:30;;;;;;;4.20;2.75;;;;;;;-3.63;100.00;101222.97;5030362;28;20053;-81
2023/12/03 03:13:04;;;;;;;5.35;3.17;;;;;;;-3.58;100.00;101225.91;5003729;28;20065;-80
2023/12/03 03:15:32;;;;;;;8.25;4.75;;;;;;;-3.63;100.00;101230.94;5007125;28;20077;-80
2023/12/03 03:18:05;;;;;;;6.82;3.85;;;;;;;-3.63;100.00;101223.78;5008737;28;20061;-81
2023/12/03 03:20:38;;;;;;;5.40;3.13;;;;;;;-3.63;100.00;101231.75;5011095;28;20111;-81
2023/12/03 03:23:07;;;;;;;7.57;4.28;;;;;;;-3.57;100.00;101234.75;5007170;28;20054;-80
2023/12/03 03:25:36;;;;;;;9.40;4.45;;;;;;;-3.57;100.00;101237.41;4999819;28;20479;-80
2023/12/03 03:28:05;;;;;;;6.05;3.58;;;;;;;-3.64;100.00;101238.06;5015825;28;20415;-81
2023/12/03 03:30:38;;;;;;;6.47;3.85;;;;;;;-3.74;100.00;101240.13;5014397;28;20058;-80
2023/12/03 03:33:11;;;;;;;6.10;4.22;;;;;;;-3.71;100.00;101241.63;5009511;28;20053;-81
2023/12/03 03:35:40;;;;;;;3.25;2.30;;;;;;;-3.65;100.00;101240.91;5012794;28;20049;-81
2023/12/03 03:38:13;;;;;;;7.35;3.65;;;;;;;-3.60;100.00;101241.22;5009208;28;20483;-82
2023/12/03 03:40:47;;;;;;;4.80;3.28;;;;;;;-3.59;100.00;101242.88;5011836;28;20057;-80
2023/12/03 03:43:21;;;;;;;5.97;3.15;;;;;;;-3.55;100.00;101249.50;5008407;28;20061;-81
2023/12/03 03:45:54;;;;;;;8.15;2.72;;;;;;;-3.65;100.00;101249.72;5017703;28;20053;-81
2023/12/03 03:48:22;;;;;;;5.20;2.70;;;;;;;-3.66;100.00;101248.06;5006817;28;20050;-81
2023/12/03 03:50:55;;;;;;;4.25;2.88;;;;;;;-3.70;100.00;101256.53;5011536;28;20053;-80
2023/12/03 03:53:29;;;;;;;5.50;3.05;;;;;;;-3.61;100.00;101255.53;5008304;28;20406;-81
2023/12/03 03:56:07;;;;;;;5.70;3.10;;;;;;;-3.64;100.00;101254.03;5018505;28;20046;-80
2023/12/03 03:58:37;;;;;;;3.97;2.67;;;;;;;-3.62;100.00;101253.88;5018846;28;20046;-80
2023/12/03 04:01:10;;;;;;;5.57;2.72;;;;;;;-3.62;100.00;101241.41;4999306;28;20521;-81
2023/12/03 04:03:43;;;;;;;4.70;2.75;;;;;;;-3.60;100.00;101246.56;5008658;28;20044;-81
2023/12/03 04:06:17;;;;;;;6.13;2.55;;;;;;;-3.51;100.00;101250.00;5009820;28;20050;-81
2023/12/03 04:08:50;;;;;;;2.80;2.35;;;;;;;-3.49;100.00;101256.00;5009513;28;20053;-81
2023/12/03 04:11:24;;;;;;;5.68;3.15;;;;;;;-3.46;100.00;101253.78;5013738;28;20064;-82
2023/12/03 04:13:52;;;;;;;4.70;2.97;;;;;;;-3.53;100.00;101250.19;5013504;28;20050;-80
2023/12/03 04:16:22;;;;;;;3.33;2.38;;;;;;;-3.56;100.00;101261.16;5013650;28;20053;-81
2023/12/03 04:18:56;;;;;;;6.68;3.15;;;;;;;-3.46;100.00;101259.13;5016562;28;20041;-80
2023/12/03 04:21:29;;;;;;;5.55;3.42;;;;;;;-3.51;100.00;101260.66;5025370;28;20248;-81
2023/12/03 04:24:03;;;;;;;5.70;2.85;;;;;;;-3.57;100.00;101264.00;5013751;28;20042;-80
2023/12/03 04:26:32;;;;;;;5.90;2.90;;;;;;;-3.66;100.00;101269.34;5011301;28;20058;-81
2023/12/03 04:29:05;;;;;;;2.15;1.92;;;;;;;-3.67;100.00;101267.69;5012911;28;20104;-81
2023/12/03 04:31:38;;;;;;;3.65;2.47;;;;;;;-3.65;100.00;101270.19;5011001;28;20049;-81
2023/12/03 04:34:07;;;;;;;4.43;2.78;;;;;;;-3.70;100.00;101270.69;5013605;28;20080;-80
2023/12/03 04:36:43;;;;;;;12.27;3.28;;;;;;;-3.82;100.00;101267.56;5011525;28;20057;-80
2023/12/03 04:39:16;;;;;;;5.72;2.75;;;;;;;-3.84;100.00;101269.56;5002094;28;20149;-81
2023/12/03 04:41:51;;;;;;;7.07;3.00;;;;;;;-3.81;100.00;101273.69;5009862;28;20084;-81
2023/12/03 04:44:24;;;;;;;3.15;2.22;;;;;;;-3.88;100.00;101273.56;5009569;28;20376;-80
2023/12/03 04:46:57;;;;;;;6.97;3.10;;;;;;;-3.94;100.00;101276.91;5008753;28;20053;-80
2023/12/03 04:49:30;;;;;;;4.40;2.50;;;;;;;-4.00;100.00;101278.41;5005153;28;20078;-81
2023/12/03 04:52:04;;;;;;;6.93;3.50;;;;;;;-4.06;100.00;101271.13;5007673;28;20046;-81
2023/12/03 04:54:37;;;;;;;3.72;2.35;;;;;;;-4.23;100.00;101272.94;5030914;28;20053;-80
2023/12/03 04:57:07;;;;;;;4.10;2.30;;;;;;;-4.29;100.00;101282.41;5012906;28;20050;-80
2023/12/03 04:59:35;;;;;;;5.95;2.33;;;;;;;-4.39;100.00;101281.78;5025156;28;20133;-82
2023/12/03 05:02:08;;;;;;;9.75;3.35;;;;;;;-4.48;100.00;101280.09;5020552;28;20050;-80
2023/12/03 05:04:36;;;;;;;2.85;2.03;;;;;;;-4.55;100.00;101277.28;5003899;28;20411;-81
2023/12/03 05:07:10;;;;;;;5.75;2.80;;;;;;;-4.53;100.00;101285.91;5013998;28;20038;-80
2023/12/03 05:09:43;;;;;;;4.75;2.72;;;;;;;-4.57;100.00;101284.59;5008767;28;20053;-81
2023/12/03 05:12:12;;;;;;;4.97;2.88;;;;;;;-4.50;100.00;101290.03;5011977;28;20057;-81
2023/12/03 05:14:40;;;;;;;11.75;4.15;;;;;;;-4.48;100.00;101285.41;5010047;28;20494;-80
2023/12/03 05:17:08;;;;;;;4.90;3.75;;;;;;;-4.37;100.00;101292.22;5029110;28;20057;-80
2023/12/03 05:19:43;;;;;;;8.77;5.18;;;;;;;-4.30;100.00;101287.91;5025081;28;20084;-81
2023/12/03 05:22:11;;;;;;;3.60;2.47;;;;;;;-4.19;100.00;101292.88;5028845;28;20060;-81
2023/12/03 05:24:39;;;;;;;6.53;3.47;;;;;;;-4.21;100.00;101294.03;5006265;28;20053;-80
2023/12/03 05:27:08;;;;;;;5.35;4.07;;;;;;;-4.16;100.00;101292.53;5006609;28;20057;-80
2023/12/03 05:29:44;;;;;;;6.43;3.20;;;;;;;-4.14;100.00;101298.53;5023934;28;20246;-80
2023/12/03 05:32:12;;;;;;;3.88;2.55;;;;;;;-4.10;100.00;101294.53;5019306;28;20057;-80
2023/12/03 05:34:46;;;;;;;3.65;2.45;;;;;;;-4.09;100.00;101298.00;5007931;28;20050;-81
2023/12/03 05:37:14;;;;;;;8.27;3.20;;;;;;;-4.11;100.00;101300.03;5010396;28;20061;-80
2023/12/03 05:39:47;;;;;;;4.82;3.17;;;;;;;-4.07;100.00;101296.03;5024785;28;20038;-82
2023/12/03 05:42:21;;;;;;;4.68;2.90;;;;;;;-4.13;100.00;101291.38;5010221;28;20057;-80
2023/12/03 05:44:56;;;;;;;3.53;2.53;;;;;;;-4.10;100.00;101289.22;5014126;28;20734;-81
2023/12/03 05:47:29;;;;;;;6.97;4.32;;;;;;;-4.08;100.00;101302.34;5023033;28;20065;-80
2023/12/03 05:50:04;;;;;;;2.83;2.28;;;;;;;-4.14;100.00;101298.53;5010450;28;20077;-81
2023/12/03 05:52:37;;;;;;;6.25;3.53;;;;;;;-4.07;100.00;101305.81;5006445;28;20046;-81
2023/12/03 05:55:06;;;;;;;3.25;1.75;;;;;;;-4.02;100.00;101304.34;5004153;28;20065;-81
2023/12/03 05:57:39;;;;;;;6.03;3.95;;;;;;;-4.04;100.00;101302.84;5008076;28;20050;-80
2023/12/03 06:00:14;;;;;;;6.70;4.57;;;;;;;-4.04;100.00;101302.84;5007745;28;20510;-80
2023/12/03 06:02:43;;;;;;;6.57;2.85;;;;;;;-4.14;100.00;101303.03;5009400;28;20064;-80
2023/12/03 06:05:16;;;;;;;5.50;2.67;;;;;;;-4.11;100.00;101308.81;5006848;28;20050;-80
2023/12/03 06:07:44;;;;;;;9.70;3.55;;;;;;;-4.08;100.00;101310.31;5009461;28;20478;-80
2023/12/03 06:10:18;;;;;;;5.07;3.22;;;;;;;-4.17;100.00;101313.97;5014058;28;20424;-80
2023/12/03 06:12:51;;;;;;;6.63;2.60;;;;;;;-4.32;100.00;101317.31;5006354;28;20049;-80
2023/12/03 06:15:25;;;;;;;6.05;2.58;;;;;;;-4.24;100.00;101320.94;5016734;28;20514;-80
2023/12/03 06:17:58;;;;;;;4.72;2.47;;;;;;;-4.23;100.00;101326.09;5011023;28;20050;-80
2023/12/03 06:20:26;;;;;;;5.15;3.28;;;;;;;-4.20;100.00;101322.28;5011751;28;20065;-80
2023/12/03 06:22:56;;;;;;;6.97;3.50;;;;;;;-4.30;100.00;101331.25;5011332;28;20046;-79
2023/12/03 06:25:29;;;;;;;5.97;3.25;;;;;;;-4.21;100.00;101328.59;5011456;28;20050;-79
2023/12/03 06:28:02;;;;;;;4.55;2.45;;;;;;;-4.29;100.00;101322.28;5005232;28;20045;-80
2023/12/03 06:30:37;;;;;;;6.38;3.47;;;;;;;-4.18;100.00;101330.94;5006879;28;20502;-79
2023/12/03 06:33:10;;;;;;;4.38;3.10;;;;;;;-4.20;100.00;101328.41;5017967;28;20049;-80
2023/12/03 06:35:43;;;;;;;3.53;2.50;;;;;;;-4.20;100.00;101328.41;5011554;28;20150;-80
2023/12/03 06:38:11;;;;;;;7.93;2.38;;;;;;;-4.30;100.00;101323.28;5011310;28;20053;-80
2023/12/03 06:40:45;;;;;;;5.65;2.63;;;;;;;-4.28;100.00;101325.75;5006479;28;20038;-81
2023/12/03 06:43:13;;;;;;;4.43;2.88;;;;;;;-4.30;100.00;101331.25;5014965;28;20060;-80
2023/12/03 06:45:48;;;;;;;5.65;3.45;;;;;;;-4.24;100.00;101334.25;5005452;28;20490;-82
2023/12/03 06:48:21;;;;;;;7.40;3.17;;;;;;;-4.38;100.00;101341.88;5002004;28;20046;-80
2023/12/03 06:50:54;;;;;;;7.25;2.97;;;;;;;-4.36;100.00;101339.88;5010606;28;20045;-80
2023/12/03 06:53:28;;;;;;;7.15;3.13;;;;;;;-4.36;100.00;101333.75;5008286;28;20042;-80
2023/12/03 06:56:01;;;;;;;5.35;2.50;;;;;;;-4.30;100.00;101341.06;5007084;28;20491;-81
2023/12/03 06:58:34;;;;;;;5.95;3.10;;;;;;;-4.35;100.00;101346.88;5023752;28;20054;-80
2023/12/03 07:01:04;;;;;;;4.25;2.28;;;;;;;-4.28;100.00;101344.38;5001885;28;20042;-80
2023/12/03 07:03:37;;;;;;;6.07;2.42;;;;;;;-4.42;100.00;101351.16;5006794;28;20053;-80
2023/12/03 07:06:12;;;;;;;8.63;4.53;;;;;;;-4.47;100.00;101356.97;5025245;28;20057;-80
2023/12/03 07:08:46;;;;;;;5.22;3.45;;;;;;;-4.47;100.00;101354.31;5013486;28;20050;-80
2023/12/03 07:11:14;;;;;;;3.78;2.83;;;;;;;-4.47;100.00;101351.66;5011150;28;20417;-80
2023/12/03 07:13:43;;;;;;;5.93;3.25;;;;;;;-4.50;100.00;101348.50;5021899;28;20054;-80
2023/12/03 07:16:12;;;;;;;4.07;2.92;;;;;;;-4.43;100.00;101352.19;5002782;28;20045;-80
2023/12/03 07:18:42;;;;;;;7.70;2.85;;;;;;;-4.43;100.00;101360.16;5015028;28;20815;-80
2023/12/03 07:21:16;;;;;;;5.03;3.05;;;;;;;-4.45;100.00;101359.47;5024749;28;20387;-85
2023/12/03 07:23:49;;;;;;;3.95;2.60;;;;;;;-4.49;100.00;101366.09;5021618;28;20080;-84
2023/12/03 07:26:17;;;;;;;6.85;3.83;;;;;;;-4.47;100.00;101361.47;5022080;28;20509;-85
2023/12/03 07:28:50;;;;;;;5.93;3.30;;;;;;;-4.44;100.00;101372.59;5003519;28;20047;-84
2023/12/03 07:31:20;;;;;;;5.22;3.13;;;;;;;-4.48;100.00;101379.22;5003418;28;20077;-85
2023/12/03 07:33:53;;;;;;;4.65;3.33;;;;;;;-4.54;100.00;101374.56;5011045;28;20494;-85
2023/12/03 07:36:26;;;;;;;3.95;2.08;;;;;;;-4.45;100.00;101386.03;5023939;28;20058;-84
2023/12/03 07:38:54;;;;;;;4.88;2.10;;;;;;;-4.45;100.00;101386.03;5002828;28;20058;-85
2023/12/03 07:41:23;;;;;;;4.47;2.22;;;;;;;-4.39;100.00;101380.09;5007785;28;20058;-85
2023/12/03 07:43:56;;;;;;;4.43;2.90;;;;;;;-4.35;100.00;101386.72;5010490;28;20050;-84
2023/12/03 07:46:32;;;;;;;4.40;2.78;;;;;;;-4.39;100.00;101388.06;5005276;28;20490;-85
2023/12/03 07:49:01;;;;;;;4.53;2.58;;;;;;;-4.31;100.00;101381.91;5019171;28;20057;-85
2023/12/03 07:51:34;;;;;;;3.67;2.50;;;;;;;-4.28;100.00;101393.03;5014834;28;20069;-85
2023/12/03 07:54:02;;;;;;;7.95;4.20;;;;;;;-4.24;100.00;101390.06;5021549;28;20054;-85
2023/12/03 07:56:36;;;;;;;6.50;3.78;;;;;;;-4.31;100.00;101388.06;5010326;28;20061;-84
2023/12/03 07:59:04;;;;;;;2.42;1.65;;;;;;;-4.30;100.00;101384.38;5010887;28;20057;-85
2023/12/03 08:01:34;;;;;;;3.60;1.83;;;;;;;-4.15;100.00;101387.25;5008110;28;20045;-85
2023/12/03 08:04:03;;;;;;;4.72;2.72;;;;;;;-4.15;100.00;101391.72;5001596;28;20061;-86
2023/12/03 08:06:37;;;;;;;6.40;3.00;;;;;;;-4.14;100.00;101390.75;5020453;28;20054;-85
2023/12/03 08:09:05;;;;;;;2.95;2.13;;;;;;;-4.20;100.00;101386.06;5014208;28;20053;-85
2023/12/03 08:11:33;;;;;;;4.57;2.72;;;;;;;-4.20;100.00;101394.03;5011532;28;20116;-85
2023/12/03 08:14:02;;;;;;;4.22;3.05;;;;;;;-4.10;100.00;101394.72;5015568;28;20050;-84
2023/12/03 08:16:36;;;;;;;6.88;2.45;;;;;;;-4.01;100.00;101388.41;5010904;28;20065;-86
2023/12/03 08:19:05;;;;;;;9.88;4.18;;;;;;;-3.98;100.00;101387.25;5003160;28;20046;-84
2023/12/03 08:21:36;;;;;;;6.47;3.50;;;;;;;-4.06;100.00;101388.09;5024081;28;20049;-84
2023/12/03 08:24:05;;;;;;;7.03;3.10;;;;;;;-4.17;100.00;101393.72;5004002;28;20042;-84
2023/12/03 08:26:34;;;;;;;6.30;3.17;;;;;;;-4.19;100.00;101395.72;4995911;28;20053;-85
2023/12/03 08:29:04;;;;;;;10.73;3.05;;;;;;;-4.11;100.00;101401.84;5024606;28;20042;-84
2023/12/03 08:31:38;;;;;;;4.22;2.80;;;;;;;-4.12;100.00;101402.03;5013809;28;20498;-85
2023/12/03 08:34:07;;;;;;;5.80;2.17;;;;;;;-4.33;100.00;101399.84;5020924;28;20061;-84
2023/12/03 08:36:40;;;;;;;4.90;2.50;;;;;;;-4.34;100.00;101396.34;5009339;28;20050;-86
2023/12/03 08:39:13;;;;;;;3.08;2.22;;;;;;;-4.21;100.00;101408.31;5003826;28;20042;-86
2023/12/03 08:41:46;;;;;;;2.90;1.73;;;;;;;-4.25;100.00;101413.16;4998460;28;20050;-87
2023/12/03 08:44:19;;;;;;;4.35;2.38;;;;;;;-4.31;100.00;101404.00;5013669;28;20104;-82
2023/12/03 08:46:54;;;;;;;1.75;1.50;;;;;;;-4.34;100.00;101412.28;5010467;28;20046;-84
2023/12/03 08:49:22;;;;;;;2.13;1.45;;;;;;;-4.37;100.00;101409.16;5021794;28;20104;-85
2023/12/03 08:51:56;;;;;;;5.70;2.35;;;;;;;-4.41;100.00;101407.81;5012679;28;20052;-87
2023/12/03 08:54:30;;;;;;;2.90;2.15;;;;;;;-4.39;100.00;101409.31;5010503;28;20125;-89
2023/12/03 08:56:58;;;;;;;4.00;2.00;;;;;;;-4.25;100.00;101389.22;5013933;28;20053;-89
2023/12/03 08:59:27;;;;;;;4.55;2.17;;;;;;;-4.24;100.00;101406.81;5010692;28;20422;-89
2023/12/03 09:01:56;;;;;;;5.68;2.42;;;;;;;-4.34;100.00;101403.50;5010853;28;20046;-91
2023/12/03 09:04:25;;;;;;;9.32;3.53;;;;;;;-4.16;100.00;101401.50;5006386;28;20038;-90
2023/12/03 09:06:58;;;;;;;6.82;3.30;;;;;;;-4.14;100.00;101401.38;5010546;28;20061;-91
2023/12/03 09:09:26;;;;;;;6.90;2.78;;;;;;;-4.21;100.00;101406.50;5017829;28;20062;-92
2023/12/03 09:11:59;;;;;;;5.25;3.35;;;;;;;-4.06;100.00;101416.47;5013420;28;20058;-91
2023/12/03 09:14:27;;;;;;;4.15;1.95;;;;;;;-4.11;100.00;101411.66;5006996;28;20928;-89
2023/12/03 09:17:03;;;;;;;14.65;3.42;;;;;;;-3.91;100.00;101420.13;5014285;28;20050;-89
2023/12/03 09:19:37;;;;;;;8.73;4.05;;;;;;;-3.73;100.00;101424.47;5010524;28;20053;-89
2023/12/03 09:22:05;;;;;;;7.72;3.30;;;;;;;-3.78;100.00;101430.31;5014086;28;20076;-89
2023/12/03 09:24:38;;;;;;;6.20;2.92;;;;;;;-3.82;100.00;101439.63;5015581;28;20049;-86
2023/12/03 09:27:11;;;;;;;5.10;3.45;;;;;;;-3.87;100.00;101440.09;5010100;28;20050;-87
2023/12/03 09:29:39;;;;;;;5.07;2.42;;;;;;;-3.81;100.00;101444.75;5019458;28;20069;-90
2023/12/03 09:32:09;;;;;;;5.90;2.90;;;;;;;-3.70;100.00;101456.91;5009169;28;20050;-83
2023/12/03 09:34:42;;;;;;;5.93;2.40;;;;;;;-3.89;100.00;101446.56;5011379;28;20053;-87
2023/12/03 09:37:10;;;;;;;3.65;2.08;;;;;;;-3.81;100.00;101449.22;5011001;28;20399;-84
2023/12/03 09:39:44;;;;;;;4.68;2.95;;;;;;;-3.66;100.00;101447.59;5008356;28;20057;-85
2023/12/03 09:42:23;;;;;;;6.38;2.80;;;;;;;-3.77;100.00;101461.19;5007795;28;20046;-84
2023/12/03 09:44:59;;;;;;;5.97;3.00;;;;;;;-3.66;100.00;101466.22;5015500;28;20503;-83
2023/12/03 09:47:34;;;;;;;5.63;3.03;;;;;;;-3.70;100.00;101469.34;5007355;28;20050;-85
2023/12/03 09:50:04;;;;;;;5.68;3.10;;;;;;;-3.77;100.00;101466.53;5011994;28;20055;-83
2023/12/03 09:52:38;;;;;;;9.68;4.00;;;;;;;-3.91;100.00;101464.53;5012884;28;20052;-82
2023/12/03 09:55:07;;;;;;;3.33;2.22;;;;;;;-3.74;100.00;101465.38;5023658;28;20054;-82
2023/12/03 09:57:36;;;;;;;7.57;3.25;;;;;;;-3.70;100.00;101469.34;5014785;28;20052;-82
2023/12/03 10:00:11;;;;;;;5.45;3.13;;;;;;;-3.58;100.00;101476.00;5013032;28;20061;-82
2023/12/03 10:02:41;;;;;;;4.80;3.05;;;;;;;-3.60;100.00;101486.00;5015675;28;20545;-82
2023/12/03 10:05:14;;;;;;;4.32;2.83;;;;;;;-3.54;100.00;101480.00;5007978;28;20054;-79
2023/12/03 10:07:48;;;;;;;5.95;2.80;;;;;;;-3.49;100.00;101485.66;5004371;28;20056;-82
2023/12/03 10:10:20;;;;;;;6.18;2.85;;;;;;;-3.51;100.00;101489.47;5002556;28;20058;-79
2023/12/03 10:12:55;;;;;;;5.55;3.10;;;;;;;-3.74;100.00;101481.31;5008187;28;20391;-79
2023/12/03 10:15:24;;;;;;;2.95;2.03;;;;;;;-3.58;100.00;101484.00;5008653;28;20065;-80
2023/12/03 10:17:53;;;;;;;5.13;2.45;;;;;;;-3.52;100.00;101487.81;5004452;28;20053;-78
2023/12/03 10:20:24;;;;;;;6.05;3.67;;;;;;;-3.80;100.00;101482.81;5006816;28;20058;-78
2023/12/03 10:22:55;;;;;;;6.20;3.03;;;;;;;-3.53;100.00;101491.50;5007135;28;20060;-80
2023/12/03 10:25:29;;;;;;;4.18;2.58;;;;;;;-3.42;100.00;101486.66;5008800;28;20053;-79
2023/12/03 10:28:05;;;;;;;6.07;3.83;;;;;;;-3.40;100.00;101496.31;5004082;28;20129;-78
2023/12/03 10:30:38;;;;;;;4.63;2.42;;;;;;;-3.29;100.00;101498.63;5008649;28;20049;-79
2023/12/03 10:33:16;;;;;;;7.93;3.50;;;;;;;-3.27;100.00;101500.13;5000197;28;20077;-79
2023/12/03 10:35:49;;;;;;;;;;;;;;;-3.21;100.00;101489.81;5018102;28;20406;-79
2023/12/03 10:38:22;;;;;;;6.50;3.47;;;;;;;-3.31;100.00;101496.13;5000990;28;19930;-78
2023/12/03 10:40:50;;;;;;;3.28;2.55;;;;;;;-3.33;100.00;101486.63;5004244;28;20045;-78
2023/12/03 10:43:23;;;;;;;3.95;2.47;;;;;;;-3.13;100.00;101482.63;5002330;28;20054;-79
2023/12/03 10:45:56;;;;;;;4.07;2.72;;;;;;;-3.14;100.00;101488.13;5006573;28;20054;-78
2023/12/03 10:48:31;;;;;;;5.03;3.28;;;;;;;-3.42;100.00;101496.47;5002774;28;20061;-78
2023/12/03 10:51:04;;;;;;;6.22;3.50;;;;;;;-3.34;100.00;101508.94;5006706;28;20057;-79
2023/12/03 10:53:32;;;;;;;5.13;2.78;;;;;;;-3.57;100.00;101500.81;5001920;28;20065;-78
2023/12/03 10:56:07;;;;;;;2.55;2.25;;;;;;;-3.53;100.00;101500.28;5001424;28;20501;-78
2023/12/03 10:58:41;;;;;;;4.10;2.05;;;;;;;-3.75;100.00;101493.81;5013287;28;20057;-78
2023/12/03 11:01:19;;;;;;;6.20;2.55;;;;;;;-3.67;100.00;101483.16;5004744;28;20054;-81
2023/12/03 11:03:59;;;;;;;3.35;2.05;;;;;;;-3.64;100.00;101488.16;5005847;28;20810;-81
2023/12/03 11:06:33;;;;;;;4.75;2.95;;;;;;;-3.42;100.00;101481.31;5008745;28;20632;-78
2023/12/03 11:09:02;;;;;;;5.85;2.42;;;;;;;-3.51;100.00;101489.47;5007270;28;20046;-80
2023/12/03 11:11:30;;;;;;;5.90;3.28;;;;;;;-3.48;100.00;101478.50;5010218;28;20049;-79
2023/12/03 11:13:59;;;;;;;3.47;2.13;;;;;;;-3.52;100.00;101479.81;5016868;28;20045;-79
2023/12/03 11:16:36;;;;;;;3.15;1.95;;;;;;;-3.33;100.00;101468.00;5008167;28;20062;-79
2023/12/03 11:19:10;;;;;;;7.25;3.00;;;;;;;-3.53;100.00;101475.53;5017557;28;20046;-79
2023/12/03 11:21:52;;;;;;;5.03;2.67;;;;;;;-3.43;100.00;101476.16;5004122;28;20050;-79
2023/12/03 11:24:53;;;;;;;3.95;2.28;;;;;;;-3.27;100.00;101478.81;5002755;28;20502;-79
2023/12/03 11:27:27;;;;;;;3.33;1.73;;;;;;;-3.27;100.00;101489.47;5004598;28;20053;-80
2023/12/03 11:29:56;;;;;;;3.80;1.95;;;;;;;-3.33;100.00;101492.81;5003630;28;20486;-80
2023/12/03 11:32:29;;;;;;;5.20;3.00;;;;;;;-3.27;100.00;101491.31;5006680;28;20482;-83
2023/12/03 11:35:07;;;;;;;1.60;1.35;;;;;;;-3.29;100.00;101502.09;5019101;28;20054;-79
2023/12/03 11:37:42;;;;;;;3.33;2.30;;;;;;;-3.16;100.00;101503.41;5001392;28;20044;-81